Bayfield, CO

11:26 AM MST on February 09, 2016 (GMT -0700)
Timberdale Ranch | | Change Station
CLOSE
Current Station
Personal Weather Station
Location: Bayfield, CO
Elevation: 7690 ft
Nearby Weather Stations

Elev 7690 ft 37.30 °N, 107.65 °W | Updated 4 minutes ago

Clear
Clear
45.0 °F
Feels Like 45 °F
N
2.5
Wind Variable Wind from WSW
Gusts 2.5 mph

Today
High -- | Low -- °F
--% Chance of Precip.
Yesterday
High -- | Low -- °F
Precip. -- in
Pressure 30.59 in
Visibility 10.0 miles
Clouds Clear
Windchill 45 °F
Dew Point 21 °F
Humidity 38%
Rainfall 0.00 in
Snow Depth Not available.
7:06 AM 5:43 PM
New Moon, 2% visible
METAR KDRO 091753Z AUTO 06005KT 10SM CLR M02/M07 A3046 RMK AO2 SLP358 T10171072 11011 21139 51007
Pressure 30.59 in
Visibility 10.0 miles
Clouds Clear
Windchill 45 °F
Dew Point 21 °F
Humidity 38%
Rainfall 0.00 in
Snow Depth Not available.
7:06 AM 5:43 PM
New Moon, 2% visible
METAR KDRO 091753Z AUTO 06005KT 10SM CLR M02/M07 A3046 RMK AO2 SLP358 T10171072 11011 21139 51007

10-Day Weather Forecast

Almanac

Astronomy

Feb. 09, 2016 Rise Set
Actual Time
Civil Twilight
Nautical Twilight
Astronomical Twilight
Moon
Length of Visible Light
Length of Day
Tomorrow will be .
, % of the Moon is Illuminated

Today's Extremes

State Highs State Lows

Community

WunderPhotos

Upload Photos

1,891,655 photos uploaded!

WunderBlog® & News

Nearby

Air Quality

  Air Quality AQ Index Pollutant
Not available.

Snow Depth

Station Depth Elevation

Earthquake Activity

City Distance Mag. Time & Date
Minimum magnitude displayed is 2.5.

Coastal Water Temperatures

Place Temperature

Stations

Nearby Weather Stations

Station Location Temp. Windchill Dew Point Humidity Wind Precip. Elev Updated Type
                   

Watches & Warnings

There are currently no watches in effect.